Nikolay Gamayunov — UHUS — position and weather

sailwx.info

Track history (hours):
 
Tides and Currents Weather Stations Pressure Air Temp Water Temp Dewpoint Dewpoint Depression Visibility Wind Speed Wind Dir Waves Ship Positions

Nikolay Gamayunov

Last reported at 2017-Dec-17 09:19 UTC. Time now 2017-Dec-17 16:05 UTC.
Position N 36°37' E 026°35'.

Length 104 m; draft 6.5 m.

Type: Tanker. MMSI: 273381530.

Date/timePositionNaut miles runAvg speedWind from/ knotsBaromVisibWave heightAir tempDewpointWater temp
2017-Dec-17 09:19N 36°37' E 026°35'2 6.9
2017-Dec-17 09:00N 36°39' E 026°33'3 6.6
2017-Dec-17 08:30N 36°41' E 026°31'4 7.1
2017-Dec-17 08:00N 36°44' E 026°28'4 8.1
2017-Dec-17 07:30N 36°47' E 026°24'4 8.3
2017-Dec-17 07:00N 36°50' E 026°20'4 7.9
2017-Dec-17 06:30N 36°53' E 026°17'4 7.4
2017-Dec-17 06:00N 36°55' E 026°14'3 6.9
2017-Dec-17 05:30N 36°58' E 026°11'4 7.1
2017-Dec-17 05:00N 37°01' E 026°08'4 7.5
2017-Dec-17 04:30N 37°04' E 026°05'4 8.4
2017-Dec-17 04:00N 37°07' E 026°01'5 9.2
2017-Dec-17 03:30N 37°10' E 025°57'5 9.0
2017-Dec-17 03:00N 37°13' E 025°53'4 8.7
2017-Dec-17 02:31N 37°16' E 025°50'4 8.4
2017-Dec-17 02:00N 37°20' E 025°49'4 7.9
2017-Dec-17 01:30N 37°24' E 025°48'4 7.8
2017-Dec-17 01:00N 37°28' E 025°48'6 7.2
2017-Dec-17 00:12N 37°34' E 025°47'3 7.5
2017-Dec-16 23:50N 37°37' E 025°47'3 7.7
2017-Dec-16 23:30N 37°39' E 025°47'4 7.8
2017-Dec-16 22:57N 37°44' E 025°46'4 7.5
2017-Dec-16 22:24N 37°48' E 025°46'12 7.7
2017-Dec-16 20:49N 37°60' E 025°44'3 9.2
2017-Dec-16 20:28N 38°03' E 025°44'8 9.0
2017-Dec-16 19:35N 38°11' E 025°44'1 8.7
2017-Dec-16 19:28N 38°12' E 025°44'221 7.1
2017-Dec-15 12:14N 40°57' E 028°56'410.2
2017-Dec-15 11:51N 40°59' E 028°60'430 9.3
2017-Dec-13 13:23N 44°28' E 037°31'410.5
2017-Dec-13 13:00N 44°30' E 037°36'510.5
2017-Dec-13 12:30N 44°33' E 037°43'510.2
2017-Dec-13 12:00N 44°36' E 037°48'4 8.1
2017-Dec-13 11:30N 44°40' E 037°50'2 4.3
2017-Dec-13 11:00N 44°42' E 037°48'0 0.2
2017-Dec-13 10:29N 44°42' E 037°48'0 0.0
2017-Dec-13 09:58N 44°42' E 037°48'0 0.0
2017-Dec-13 09:28N 44°42' E 037°48'0 0.0
2017-Dec-13 08:58N 44°42' E 037°48'0 0.0
2017-Dec-13 08:28N 44°42' E 037°48'0 0.0
2017-Dec-13 07:58N 44°42' E 037°48'0 0.0
2017-Dec-13 07:28N 44°42' E 037°48'0 0.0
2017-Dec-13 06:58N 44°42' E 037°48'0 0.1
2017-Dec-13 06:30N 44°42' E 037°48'1 1.6
2017-Dec-13 06:00N 44°43' E 037°48'1 2.8
2017-Dec-13 05:31N 44°44' E 037°47'0 0.0
2017-Dec-13 04:59N 44°44' E 037°47'0 0.0
2017-Dec-13 04:29N 44°44' E 037°47'0 0.0
2017-Dec-13 03:59N 44°44' E 037°47'0 0.0
2017-Dec-13 03:29N 44°44' E 037°47'0 0.0
2017-Dec-13 02:59N 44°44' E 037°47'0 0.0
2017-Dec-13 02:29N 44°44' E 037°47'0 0.0
2017-Dec-13 01:59N 44°44' E 037°47'0 0.0
2017-Dec-13 01:29N 44°44' E 037°47'0 0.0
2017-Dec-13 00:59N 44°44' E 037°47'0 0.0
2017-Dec-13 00:29N 44°44' E 037°47'0 0.0
2017-Dec-12 23:59N 44°44' E 037°47'0 0.0
2017-Dec-12 23:29N 44°44' E 037°47'0 0.0
2017-Dec-12 22:59N 44°44' E 037°47'0 0.0
2017-Dec-12 22:29N 44°44' E 037°47'0 0.0
2017-Dec-12 21:59N 44°44' E 037°47'0 0.0
2017-Dec-12 21:29N 44°44' E 037°47'0 0.0
2017-Dec-12 20:59N 44°44' E 037°47'0 0.0
2017-Dec-12 20:29N 44°44' E 037°47'0 0.0
2017-Dec-12 19:56N 44°44' E 037°47'0 0.0
2017-Dec-12 19:29N 44°44' E 037°47'0 0.0
2017-Dec-12 18:59N 44°44' E 037°47'0 0.0
2017-Dec-12 18:29N 44°44' E 037°47'0 0.0
2017-Dec-12 17:59N 44°44' E 037°47'0 0.0
2017-Dec-12 17:29N 44°44' E 037°47'0 0.0
2017-Dec-12 16:59N 44°44' E 037°47'0 0.0
2017-Dec-12 16:29N 44°44' E 037°47'0 0.0
2017-Dec-12 15:59N 44°44' E 037°47'0 0.0
2017-Dec-12 15:29N 44°44' E 037°47'0 0.0
2017-Dec-12 14:59N 44°44' E 037°47'0 0.0
2017-Dec-12 14:29N 44°44' E 037°47'0 0.0
2017-Dec-12 13:59N 44°44' E 037°47'0 0.0
2017-Dec-12 13:29N 44°44' E 037°47'0 0.0
2017-Dec-12 12:59N 44°44' E 037°47'0 0.0
2017-Dec-12 12:29N 44°44' E 037°47'0 0.0
2017-Dec-12 11:59N 44°44' E 037°47'0 0.0
2017-Dec-12 11:29N 44°44' E 037°47'0 0.0
2017-Dec-12 10:59N 44°44' E 037°47'0 0.0
2017-Dec-12 10:29N 44°44' E 037°47'0 0.0
2017-Dec-12 09:59N 44°44' E 037°47'0 0.0
2017-Dec-12 09:29N 44°44' E 037°47'0 0.0
2017-Dec-12 08:59N 44°44' E 037°47'0 0.0
2017-Dec-12 08:29N 44°44' E 037°47'0 0.0
2017-Dec-12 07:56N 44°44' E 037°47'0 0.0
2017-Dec-12 07:29N 44°44' E 037°47'0 0.0
2017-Dec-12 06:59N 44°44' E 037°47'0 0.0
2017-Dec-12 06:29N 44°44' E 037°47'0 0.0
2017-Dec-12 05:59N 44°44' E 037°47'0 0.0
2017-Dec-12 05:29N 44°44' E 037°47'0 0.0
2017-Dec-12 04:59N 44°44' E 037°47'0 0.0
2017-Dec-12 04:29N 44°44' E 037°47'0 0.0
2017-Dec-12 03:59N 44°44' E 037°47'0 0.0
2017-Dec-12 03:29N 44°44' E 037°47'0 0.0
2017-Dec-12 02:59N 44°44' E 037°47'0 0.0
2017-Dec-12 02:29N 44°44' E 037°47'0 0.0
2017-Dec-12 01:59N 44°44' E 037°47'0 0.0
2017-Dec-12 01:29N 44°44' E 037°47'0 0.0
2017-Dec-12 00:59N 44°44' E 037°47'0 0.0
2017-Dec-12 00:29N 44°44' E 037°47'0 0.0
2017-Dec-11 23:59N 44°44' E 037°47'0 0.0
2017-Dec-11 23:29N 44°44' E 037°47'0 0.0
2017-Dec-11 22:59N 44°44' E 037°47'0 0.0
2017-Dec-11 22:29N 44°44' E 037°47'0 0.0
2017-Dec-11 21:56N 44°44' E 037°47'0 0.0
2017-Dec-11 21:29N 44°44' E 037°47'0 0.0
2017-Dec-11 20:59N 44°44' E 037°47'0 0.0
2017-Dec-11 20:29N 44°44' E 037°47'0 0.0
2017-Dec-11 19:55N 44°44' E 037°47'0 0.0
2017-Dec-11 19:28N 44°44' E 037°47'0 0.0
2017-Dec-11 18:58N 44°44' E 037°47'0 0.0
2017-Dec-11 18:28N 44°44' E 037°47'0 0.0
2017-Dec-11 17:58N 44°44' E 037°47'0 0.0
2017-Dec-11 17:28N 44°44' E 037°47'0 0.0
2017-Dec-11 16:58N 44°44' E 037°47'0 0.0
2017-Dec-11 16:28N 44°44' E 037°47'0 0.0
2017-Dec-11 15:58N 44°44' E 037°47'0 0.0
2017-Dec-11 15:28N 44°44' E 037°47'0 0.0
2017-Dec-11 14:58N 44°44' E 037°47'0 0.0
2017-Dec-11 14:28N 44°44' E 037°47'0 0.0
2017-Dec-11 13:58N 44°44' E 037°47'0 0.0
2017-Dec-11 13:28N 44°44' E 037°47'0 0.0
2017-Dec-11 12:58N 44°44' E 037°47'0 0.0
2017-Dec-11 12:28N 44°44' E 037°47'0 0.0
2017-Dec-11 11:58N 44°44' E 037°47'0 0.0
2017-Dec-11 11:28N 44°44' E 037°47'0 0.0
2017-Dec-11 10:58N 44°44' E 037°47'0 0.0
2017-Dec-11 10:28N 44°44' E 037°47'0 0.0
2017-Dec-11 09:58N 44°44' E 037°47'0 0.0
2017-Dec-11 09:28N 44°44' E 037°47'0 0.0
2017-Dec-11 08:58N 44°44' E 037°47'0 0.0
2017-Dec-11 08:28N 44°44' E 037°47'0 0.0
2017-Dec-11 07:55N 44°44' E 037°47'0 0.0
2017-Dec-11 07:28N 44°44' E 037°47'0 0.0
2017-Dec-11 06:58N 44°44' E 037°47'0 0.0
2017-Dec-11 06:28N 44°44' E 037°47'0 0.0
2017-Dec-11 05:58N 44°44' E 037°47'0 0.0
2017-Dec-11 05:25N 44°44' E 037°47'0 0.0
2017-Dec-11 04:55N 44°44' E 037°47'0 0.0
2017-Dec-11 04:28N 44°44' E 037°47'0 0.0
2017-Dec-11 04:00N 44°44' E 037°47'0 0.0
2017-Dec-11 03:27N 44°44' E 037°47'0 0.0
2017-Dec-11 03:00N 44°44' E 037°47'0 0.0
2017-Dec-11 02:30N 44°44' E 037°47'0 0.0
2017-Dec-11 02:00N 44°44' E 037°47'0 0.0
2017-Dec-11 01:30N 44°44' E 037°47'0 0.0
2017-Dec-11 01:00N 44°44' E 037°47'0 0.0
2017-Dec-11 00:30N 44°44' E 037°47'0 0.0
2017-Dec-11 00:00N 44°44' E 037°47'0 0.0
2017-Dec-10 23:30N 44°44' E 037°47'0 0.0
2017-Dec-10 23:00N 44°44' E 037°47'0 0.0
2017-Dec-10 22:30N 44°44' E 037°47'0 0.0
2017-Dec-10 22:00N 44°44' E 037°47'0 0.0
2017-Dec-10 21:30N 44°44' E 037°47'0 0.0
2017-Dec-10 21:00N 44°44' E 037°47'0 0.0
2017-Dec-10 20:12N 44°44' E 037°47'0 0.0
2017-Dec-10 20:00N 44°44' E 037°47'0 0.0
2017-Dec-10 19:30N 44°44' E 037°47'0 0.0
2017-Dec-10 19:00N 44°44' E 037°47'0 0.0
2017-Dec-10 18:30N 44°44' E 037°47'0 0.0
2017-Dec-10 18:00N 44°44' E 037°47'0 0.0
2017-Dec-10 17:30N 44°44' E 037°47'0 0.0
2017-Dec-10 17:00N 44°44' E 037°47'0 0.0
2017-Dec-10 16:27N 44°44' E 037°47'0 0.0
2017-Dec-10 16:00N 44°44' E 037°47'0 0.0
2017-Dec-10 15:30N 44°44' E 037°47'0 0.0
2017-Dec-10 15:00N 44°44' E 037°47'0 0.0
2017-Dec-10 14:30N 44°44' E 037°47'0 0.0
2017-Dec-10 13:57N 44°44' E 037°47'0 0.0
2017-Dec-10 13:30N 44°44' E 037°47'0 0.0
2017-Dec-10 13:00N 44°44' E 037°47'0 0.0
2017-Dec-10 12:30N 44°44' E 037°47'0 0.0
2017-Dec-10 12:00N 44°44' E 037°47'0 0.0
2017-Dec-10 11:30N 44°44' E 037°47'0 0.0
2017-Dec-10 11:00N 44°44' E 037°47'0 0.0
2017-Dec-10 10:30N 44°44' E 037°47'0 0.0
2017-Dec-10 10:00N 44°44' E 037°47'0 0.0
2017-Dec-10 09:30N 44°44' E 037°47'0 0.0
2017-Dec-10 09:00N 44°44' E 037°47'0 0.0
2017-Dec-10 08:30N 44°44' E 037°47'0 0.0
2017-Dec-10 08:00N 44°44' E 037°47'0 0.0
2017-Dec-10 07:30N 44°44' E 037°47'0 0.0
2017-Dec-10 07:00N 44°44' E 037°47'0 0.0
2017-Dec-10 06:30N 44°44' E 037°47'0 0.0
2017-Dec-10 06:00N 44°44' E 037°47'0 0.0
2017-Dec-10 05:30N 44°44' E 037°47'0 0.0
2017-Dec-10 05:00N 44°44' E 037°47'0 0.0
2017-Dec-10 04:30N 44°44' E 037°47'0 0.0
2017-Dec-10 04:00N 44°44' E 037°47'0 0.0
2017-Dec-10 03:30N 44°44' E 037°47'0 0.0
2017-Dec-10 03:00N 44°44' E 037°47'0 0.0
2017-Dec-10 02:30N 44°44' E 037°47'0 0.0
2017-Dec-10 02:00N 44°44' E 037°47'0 0.0
2017-Dec-10 01:30N 44°44' E 037°47'0 0.0
2017-Dec-10 01:00N 44°44' E 037°47'0 0.0
2017-Dec-10 00:30N 44°44' E 037°47'0 0.0
2017-Dec-10 00:00N 44°44' E 037°47'0 0.0
2017-Dec-09 23:30N 44°44' E 037°47'0 0.0
2017-Dec-09 23:00N 44°44' E 037°47'0 0.0
2017-Dec-09 22:30N 44°44' E 037°47'0 0.0
2017-Dec-09 21:24N 44°44' E 037°47'0 0.0
2017-Dec-09 21:00N 44°44' E 037°47'0 0.0
2017-Dec-09 20:30N 44°44' E 037°47'0 0.0
2017-Dec-09 20:00N 44°44' E 037°47'0 0.0
2017-Dec-09 19:30N 44°44' E 037°47'0 0.0
2017-Dec-09 19:00N 44°44' E 037°47'0 0.0
2017-Dec-09 18:30N 44°44' E 037°47'0 0.0
2017-Dec-09 18:00N 44°44' E 037°47'0 0.0
2017-Dec-09 17:30N 44°44' E 037°47'0 0.0
2017-Dec-09 17:00N 44°44' E 037°47'0 0.0
2017-Dec-09 16:30N 44°44' E 037°47'0 0.0
2017-Dec-09 16:00N 44°44' E 037°47'0 0.0
2017-Dec-09 15:30N 44°44' E 037°47'0 0.0
2017-Dec-09 15:00N 44°44' E 037°47'0 0.0
2017-Dec-09 14:30N 44°44' E 037°47'0 0.0
2017-Dec-09 14:00N 44°44' E 037°47'0 0.0
2017-Dec-09 13:30N 44°44' E 037°47'0 0.0
2017-Dec-09 13:00N 44°44' E 037°47'0 0.0
2017-Dec-09 12:30N 44°44' E 037°47'0 0.0
2017-Dec-09 11:57N 44°44' E 037°47'0 0.0
2017-Dec-09 11:30N 44°44' E 037°47'0 0.0
2017-Dec-09 11:00N 44°44' E 037°47'0 0.0
2017-Dec-09 10:30N 44°44' E 037°47'0 0.0
2017-Dec-09 10:00N 44°44' E 037°47'0 0.0
2017-Dec-09 09:30N 44°44' E 037°47'0 0.0
2017-Dec-09 09:00N 44°44' E 037°47'0 0.0
2017-Dec-09 08:30N 44°44' E 037°47'0 0.0
2017-Dec-09 08:00N 44°44' E 037°47'0 0.0
2017-Dec-09 07:30N 44°44' E 037°47'0 0.0
2017-Dec-09 07:00N 44°44' E 037°47'0 0.0
2017-Dec-09 06:30N 44°44' E 037°47'0 0.0
2017-Dec-09 06:00N 44°44' E 037°47'0 0.0
2017-Dec-09 05:30N 44°44' E 037°47'0 0.0
2017-Dec-09 05:00N 44°44' E 037°47'0 0.0
2017-Dec-09 04:30N 44°44' E 037°47'0 0.0
2017-Dec-09 04:00N 44°44' E 037°47'0 0.0
2017-Dec-09 03:30N 44°44' E 037°47'0 0.0
2017-Dec-09 03:00N 44°44' E 037°47'0 0.0
2017-Dec-09 02:30N 44°44' E 037°47'0 0.0
2017-Dec-09 02:00N 44°44' E 037°47'0 0.0
2017-Dec-09 01:30N 44°44' E 037°47'0 0.0
2017-Dec-09 00:59N 44°44' E 037°47'0 0.0
2017-Dec-09 00:30N 44°44' E 037°47'0 0.0
2017-Dec-08 23:59N 44°44' E 037°47'0 0.0
2017-Dec-08 23:29N 44°44' E 037°47'0 0.0
2017-Dec-08 22:59N 44°44' E 037°47'0 0.0
2017-Dec-08 22:29N 44°44' E 037°47'0 0.0
2017-Dec-08 21:59N 44°44' E 037°47'0 0.0
2017-Dec-08 21:29N 44°44' E 037°47'0 0.0
2017-Dec-08 20:59N 44°44' E 037°47'0 0.0
2017-Dec-08 20:29N 44°44' E 037°47'0 0.0
2017-Dec-08 19:59N 44°44' E 037°47'0 0.0
2017-Dec-08 19:29N 44°44' E 037°47'0 0.0
2017-Dec-08 18:59N 44°44' E 037°47'0 0.0
2017-Dec-08 18:29N 44°44' E 037°47'0 0.0
2017-Dec-08 17:59N 44°44' E 037°47'0 0.0
2017-Dec-08 17:29N 44°44' E 037°47'0 0.0
2017-Dec-08 16:53N 44°44' E 037°47'0 0.0
2017-Dec-08 16:29N 44°44' E 037°47'0 0.0
2017-Dec-08 15:56N 44°44' E 037°47'0 0.0
2017-Dec-08 15:29N 44°44' E 037°47'0 0.0
2017-Dec-08 14:59N 44°44' E 037°47'0 0.0
2017-Dec-08 14:29N 44°44' E 037°47'0 0.0
2017-Dec-08 13:59N 44°44' E 037°47'0 0.0
2017-Dec-08 13:29N 44°44' E 037°47'0 0.0
2017-Dec-08 12:59N 44°44' E 037°47'0 0.0
2017-Dec-08 12:29N 44°44' E 037°47'0 0.0
2017-Dec-08 11:59N 44°44' E 037°47'0 0.0
2017-Dec-08 11:29N 44°44' E 037°47'0 0.0
2017-Dec-08 10:59N 44°44' E 037°47'0 0.0
2017-Dec-08 10:29N 44°44' E 037°47'0 0.0
2017-Dec-08 09:59N 44°44' E 037°47'0 0.0
2017-Dec-08 09:29N 44°44' E 037°47'0 0.0
2017-Dec-08 08:59N 44°44' E 037°47'0 0.0
2017-Dec-08 08:29N 44°44' E 037°47'0 0.0
2017-Dec-08 07:59N 44°44' E 037°47'0 0.0
2017-Dec-08 07:29N 44°44' E 037°47'0 0.0
2017-Dec-08 06:59N 44°44' E 037°47'0 0.0
2017-Dec-08 06:29N 44°44' E 037°47'0 0.0
2017-Dec-08 05:59N 44°44' E 037°47'0 0.0
2017-Dec-08 05:29N 44°44' E 037°47'0 0.0
2017-Dec-08 04:59N 44°44' E 037°47'0 0.0
2017-Dec-08 04:29N 44°44' E 037°47'0 0.0
2017-Dec-08 03:59N 44°44' E 037°47'0 0.0
2017-Dec-08 03:29N 44°44' E 037°47'0 0.0
2017-Dec-08 02:59N 44°44' E 037°47'0 0.0
2017-Dec-08 02:29N 44°44' E 037°47'0 0.0
2017-Dec-08 01:59N 44°44' E 037°47'0 0.0
2017-Dec-08 01:29N 44°44' E 037°47'0 0.0
2017-Dec-08 00:59N 44°44' E 037°47'0 0.0
2017-Dec-08 00:29N 44°44' E 037°47'0 0.0
2017-Dec-07 23:59N 44°44' E 037°47'0 0.0
2017-Dec-07 23:29N 44°44' E 037°47'0 0.0
2017-Dec-07 22:59N 44°44' E 037°47'0 0.0
2017-Dec-07 22:29N 44°44' E 037°47'0 0.0
2017-Dec-07 21:59N 44°44' E 037°47'0 0.0
2017-Dec-07 21:29N 44°44' E 037°47'0 0.0
2017-Dec-07 20:59N 44°44' E 037°47'0 0.0
2017-Dec-07 20:29N 44°44' E 037°47'0 0.0
2017-Dec-07 20:00N 44°44' E 037°47'0 0.7
2017-Dec-07 19:30N 44°44' E 037°47'2 4.1
2017-Dec-07 19:00N 44°43' E 037°50'1 1.1
2017-Dec-07 18:30N 44°43' E 037°51'0 0.0
2017-Dec-07 18:00N 44°43' E 037°51'0 0.0
2017-Dec-07 17:30N 44°43' E 037°51'0 0.0
2017-Dec-07 17:00N 44°43' E 037°51'0 0.0
2017-Dec-07 16:30N 44°43' E 037°51'0 0.0
2017-Dec-07 16:00N 44°43' E 037°51'0 0.0
2017-Dec-07 15:29N 44°43' E 037°51'0 0.0
2017-Dec-07 14:59N 44°43' E 037°51'0 0.0
2017-Dec-07 14:29N 44°43' E 037°51'0 0.0
2017-Dec-07 13:59N 44°43' E 037°51'0 0.0
2017-Dec-07 13:29N 44°43' E 037°51'0 0.0
2017-Dec-07 12:56N 44°43' E 037°51'0 0.0
2017-Dec-07 12:29N 44°43' E 037°51'0 0.0
2017-Dec-07 11:59N 44°43' E 037°51'0 0.0
2017-Dec-07 11:29N 44°43' E 037°51'0 0.0
2017-Dec-07 10:59N 44°43' E 037°51'0 0.0
2017-Dec-07 10:29N 44°43' E 037°51'0 0.0
2017-Dec-07 09:59N 44°43' E 037°51'0 0.0
2017-Dec-07 09:29N 44°43' E 037°51'  
Track history (hours):
 
Tides and Currents Weather Stations Pressure Air Temp Water Temp Dewpoint Dewpoint Depression Visibility Wind Speed Wind Dir Waves Ship Positions

Nikolay Gamayunov

Last reported at 2017-Dec-17 09:19 UTC. Time now 2017-Dec-17 16:05 UTC.
Position N 36°37' E 026°35'.

Length 104 m; draft 6.5 m.

Type: Tanker. MMSI: 273381530.

Date/timePositionNaut miles runAvg speedWind from/ knotsBaromVisibWave heightAir tempDewpointWater temp
2017-Dec-17 09:19N 36°37' E 026°35'2 6.9
2017-Dec-17 09:00N 36°39' E 026°33'3 6.6
2017-Dec-17 08:30N 36°41' E 026°31'4 7.1
2017-Dec-17 08:00N 36°44' E 026°28'4 8.1
2017-Dec-17 07:30N 36°47' E 026°24'4 8.3
2017-Dec-17 07:00N 36°50' E 026°20'4 7.9
2017-Dec-17 06:30N 36°53' E 026°17'4 7.4
2017-Dec-17 06:00N 36°55' E 026°14'3 6.9
2017-Dec-17 05:30N 36°58' E 026°11'4 7.1
2017-Dec-17 05:00N 37°01' E 026°08'4 7.5
2017-Dec-17 04:30N 37°04' E 026°05'4 8.4
2017-Dec-17 04:00N 37°07' E 026°01'5 9.2
2017-Dec-17 03:30N 37°10' E 025°57'5 9.0
2017-Dec-17 03:00N 37°13' E 025°53'4 8.7
2017-Dec-17 02:31N 37°16' E 025°50'4 8.4
2017-Dec-17 02:00N 37°20' E 025°49'4 7.9
2017-Dec-17 01:30N 37°24' E 025°48'4 7.8
2017-Dec-17 01:00N 37°28' E 025°48'6 7.2
2017-Dec-17 00:12N 37°34' E 025°47'3 7.5
2017-Dec-16 23:50N 37°37' E 025°47'3 7.7
2017-Dec-16 23:30N 37°39' E 025°47'4 7.8
2017-Dec-16 22:57N 37°44' E 025°46'4 7.5
2017-Dec-16 22:24N 37°48' E 025°46'12 7.7
2017-Dec-16 20:49N 37°60' E 025°44'3 9.2
2017-Dec-16 20:28N 38°03' E 025°44'8 9.0
2017-Dec-16 19:35N 38°11' E 025°44'1 8.7
2017-Dec-16 19:28N 38°12' E 025°44'221 7.1
2017-Dec-15 12:14N 40°57' E 028°56'410.2
2017-Dec-15 11:51N 40°59' E 028°60'430 9.3
2017-Dec-13 13:23N 44°28' E 037°31'410.5
2017-Dec-13 13:00N 44°30' E 037°36'510.5
2017-Dec-13 12:30N 44°33' E 037°43'510.2
2017-Dec-13 12:00N 44°36' E 037°48'4 8.1
2017-Dec-13 11:30N 44°40' E 037°50'2 4.3
2017-Dec-13 11:00N 44°42' E 037°48'0 0.2
2017-Dec-13 10:29N 44°42' E 037°48'0 0.0
2017-Dec-13 09:58N 44°42' E 037°48'0 0.0
2017-Dec-13 09:28N 44°42' E 037°48'0 0.0
2017-Dec-13 08:58N 44°42' E 037°48'0 0.0
2017-Dec-13 08:28N 44°42' E 037°48'0 0.0
2017-Dec-13 07:58N 44°42' E 037°48'0 0.0
2017-Dec-13 07:28N 44°42' E 037°48'0 0.0
2017-Dec-13 06:58N 44°42' E 037°48'0 0.1
2017-Dec-13 06:30N 44°42' E 037°48'1 1.6
2017-Dec-13 06:00N 44°43' E 037°48'1 2.8
2017-Dec-13 05:31N 44°44' E 037°47'0 0.0
2017-Dec-13 04:59N 44°44' E 037°47'0 0.0
2017-Dec-13 04:29N 44°44' E 037°47'0 0.0
2017-Dec-13 03:59N 44°44' E 037°47'0 0.0
2017-Dec-13 03:29N 44°44' E 037°47'0 0.0
2017-Dec-13 02:59N 44°44' E 037°47'0 0.0
2017-Dec-13 02:29N 44°44' E 037°47'0 0.0
2017-Dec-13 01:59N 44°44' E 037°47'0 0.0
2017-Dec-13 01:29N 44°44' E 037°47'0 0.0
2017-Dec-13 00:59N 44°44' E 037°47'0 0.0
2017-Dec-13 00:29N 44°44' E 037°47'0 0.0
2017-Dec-12 23:59N 44°44' E 037°47'0 0.0
2017-Dec-12 23:29N 44°44' E 037°47'0 0.0
2017-Dec-12 22:59N 44°44' E 037°47'0 0.0
2017-Dec-12 22:29N 44°44' E 037°47'0 0.0
2017-Dec-12 21:59N 44°44' E 037°47'0 0.0
2017-Dec-12 21:29N 44°44' E 037°47'0 0.0
2017-Dec-12 20:59N 44°44' E 037°47'0 0.0
2017-Dec-12 20:29N 44°44' E 037°47'0 0.0
2017-Dec-12 19:56N 44°44' E 037°47'0 0.0
2017-Dec-12 19:29N 44°44' E 037°47'0 0.0
2017-Dec-12 18:59N 44°44' E 037°47'0 0.0
2017-Dec-12 18:29N 44°44' E 037°47'0 0.0
2017-Dec-12 17:59N 44°44' E 037°47'0 0.0
2017-Dec-12 17:29N 44°44' E 037°47'0 0.0
2017-Dec-12 16:59N 44°44' E 037°47'0 0.0
2017-Dec-12 16:29N 44°44' E 037°47'0 0.0
2017-Dec-12 15:59N 44°44' E 037°47'0 0.0
2017-Dec-12 15:29N 44°44' E 037°47'0 0.0
2017-Dec-12 14:59N 44°44' E 037°47'0 0.0
2017-Dec-12 14:29N 44°44' E 037°47'0 0.0
2017-Dec-12 13:59N 44°44' E 037°47'0 0.0
2017-Dec-12 13:29N 44°44' E 037°47'0 0.0
2017-Dec-12 12:59N 44°44' E 037°47'0 0.0
2017-Dec-12 12:29N 44°44' E 037°47'0 0.0
2017-Dec-12 11:59N 44°44' E 037°47'0 0.0
2017-Dec-12 11:29N 44°44' E 037°47'0 0.0
2017-Dec-12 10:59N 44°44' E 037°47'0 0.0
2017-Dec-12 10:29N 44°44' E 037°47'0 0.0
2017-Dec-12 09:59N 44°44' E 037°47'0 0.0
2017-Dec-12 09:29N 44°44' E 037°47'0 0.0
2017-Dec-12 08:59N 44°44' E 037°47'0 0.0
2017-Dec-12 08:29N 44°44' E 037°47'0 0.0
2017-Dec-12 07:56N 44°44' E 037°47'0 0.0
2017-Dec-12 07:29N 44°44' E 037°47'0 0.0
2017-Dec-12 06:59N 44°44' E 037°47'0 0.0
2017-Dec-12 06:29N 44°44' E 037°47'0 0.0
2017-Dec-12 05:59N 44°44' E 037°47'0 0.0
2017-Dec-12 05:29N 44°44' E 037°47'0 0.0
2017-Dec-12 04:59N 44°44' E 037°47'0 0.0
2017-Dec-12 04:29N 44°44' E 037°47'0 0.0
2017-Dec-12 03:59N 44°44' E 037°47'0 0.0
2017-Dec-12 03:29N 44°44' E 037°47'0 0.0
2017-Dec-12 02:59N 44°44' E 037°47'0 0.0
2017-Dec-12 02:29N 44°44' E 037°47'0 0.0
2017-Dec-12 01:59N 44°44' E 037°47'0 0.0
2017-Dec-12 01:29N 44°44' E 037°47'0 0.0
2017-Dec-12 00:59N 44°44' E 037°47'0 0.0
2017-Dec-12 00:29N 44°44' E 037°47'0 0.0
2017-Dec-11 23:59N 44°44' E 037°47'0 0.0
2017-Dec-11 23:29N 44°44' E 037°47'0 0.0
2017-Dec-11 22:59N 44°44' E 037°47'0 0.0
2017-Dec-11 22:29N 44°44' E 037°47'0 0.0
2017-Dec-11 21:56N 44°44' E 037°47'0 0.0
2017-Dec-11 21:29N 44°44' E 037°47'0 0.0
2017-Dec-11 20:59N 44°44' E 037°47'0 0.0
2017-Dec-11 20:29N 44°44' E 037°47'0 0.0
2017-Dec-11 19:55N 44°44' E 037°47'0 0.0
2017-Dec-11 19:28N 44°44' E 037°47'0 0.0
2017-Dec-11 18:58N 44°44' E 037°47'0 0.0
2017-Dec-11 18:28N 44°44' E 037°47'0 0.0
2017-Dec-11 17:58N 44°44' E 037°47'0 0.0
2017-Dec-11 17:28N 44°44' E 037°47'0 0.0
2017-Dec-11 16:58N 44°44' E 037°47'0 0.0
2017-Dec-11 16:28N 44°44' E 037°47'0 0.0
2017-Dec-11 15:58N 44°44' E 037°47'0 0.0
2017-Dec-11 15:28N 44°44' E 037°47'0 0.0
2017-Dec-11 14:58N 44°44' E 037°47'0 0.0
2017-Dec-11 14:28N 44°44' E 037°47'0 0.0
2017-Dec-11 13:58N 44°44' E 037°47'0 0.0
2017-Dec-11 13:28N 44°44' E 037°47'0 0.0
2017-Dec-11 12:58N 44°44' E 037°47'0 0.0
2017-Dec-11 12:28N 44°44' E 037°47'0 0.0
2017-Dec-11 11:58N 44°44' E 037°47'0 0.0
2017-Dec-11 11:28N 44°44' E 037°47'0 0.0
2017-Dec-11 10:58N 44°44' E 037°47'0 0.0
2017-Dec-11 10:28N 44°44' E 037°47'0 0.0
2017-Dec-11 09:58N 44°44' E 037°47'0 0.0
2017-Dec-11 09:28N 44°44' E 037°47'0 0.0
2017-Dec-11 08:58N 44°44' E 037°47'0 0.0
2017-Dec-11 08:28N 44°44' E 037°47'0 0.0
2017-Dec-11 07:55N 44°44' E 037°47'0 0.0
2017-Dec-11 07:28N 44°44' E 037°47'0 0.0
2017-Dec-11 06:58N 44°44' E 037°47'0 0.0
2017-Dec-11 06:28N 44°44' E 037°47'0 0.0
2017-Dec-11 05:58N 44°44' E 037°47'0 0.0
2017-Dec-11 05:25N 44°44' E 037°47'0 0.0
2017-Dec-11 04:55N 44°44' E 037°47'0 0.0
2017-Dec-11 04:28N 44°44' E 037°47'0 0.0
2017-Dec-11 04:00N 44°44' E 037°47'0 0.0
2017-Dec-11 03:27N 44°44' E 037°47'0 0.0
2017-Dec-11 03:00N 44°44' E 037°47'0 0.0
2017-Dec-11 02:30N 44°44' E 037°47'0 0.0
2017-Dec-11 02:00N 44°44' E 037°47'0 0.0
2017-Dec-11 01:30N 44°44' E 037°47'0 0.0
2017-Dec-11 01:00N 44°44' E 037°47'0 0.0
2017-Dec-11 00:30N 44°44' E 037°47'0 0.0
2017-Dec-11 00:00N 44°44' E 037°47'0 0.0
2017-Dec-10 23:30N 44°44' E 037°47'0 0.0
2017-Dec-10 23:00N 44°44' E 037°47'0 0.0
2017-Dec-10 22:30N 44°44' E 037°47'0 0.0
2017-Dec-10 22:00N 44°44' E 037°47'0 0.0
2017-Dec-10 21:30N 44°44' E 037°47'0 0.0
2017-Dec-10 21:00N 44°44' E 037°47'0 0.0
2017-Dec-10 20:12N 44°44' E 037°47'0 0.0
2017-Dec-10 20:00N 44°44' E 037°47'0 0.0
2017-Dec-10 19:30N 44°44' E 037°47'0 0.0
2017-Dec-10 19:00N 44°44' E 037°47'0 0.0
2017-Dec-10 18:30N 44°44' E 037°47'0 0.0
2017-Dec-10 18:00N 44°44' E 037°47'0 0.0
2017-Dec-10 17:30N 44°44' E 037°47'0 0.0
2017-Dec-10 17:00N 44°44' E 037°47'0 0.0
2017-Dec-10 16:27N 44°44' E 037°47'0 0.0
2017-Dec-10 16:00N 44°44' E 037°47'0 0.0
2017-Dec-10 15:30N 44°44' E 037°47'0 0.0
2017-Dec-10 15:00N 44°44' E 037°47'0 0.0
2017-Dec-10 14:30N 44°44' E 037°47'0 0.0
2017-Dec-10 13:57N 44°44' E 037°47'0 0.0
2017-Dec-10 13:30N 44°44' E 037°47'0 0.0
2017-Dec-10 13:00N 44°44' E 037°47'0 0.0
2017-Dec-10 12:30N 44°44' E 037°47'0 0.0
2017-Dec-10 12:00N 44°44' E 037°47'0 0.0
2017-Dec-10 11:30N 44°44' E 037°47'0 0.0
2017-Dec-10 11:00N 44°44' E 037°47'0 0.0
2017-Dec-10 10:30N 44°44' E 037°47'0 0.0
2017-Dec-10 10:00N 44°44' E 037°47'0 0.0
2017-Dec-10 09:30N 44°44' E 037°47'0 0.0
2017-Dec-10 09:00N 44°44' E 037°47'0 0.0
2017-Dec-10 08:30N 44°44' E 037°47'0 0.0
2017-Dec-10 08:00N 44°44' E 037°47'0 0.0
2017-Dec-10 07:30N 44°44' E 037°47'0 0.0
2017-Dec-10 07:00N 44°44' E 037°47'0 0.0
2017-Dec-10 06:30N 44°44' E 037°47'0 0.0
2017-Dec-10 06:00N 44°44' E 037°47'0 0.0
2017-Dec-10 05:30N 44°44' E 037°47'0 0.0
2017-Dec-10 05:00N 44°44' E 037°47'0 0.0
2017-Dec-10 04:30N 44°44' E 037°47'0 0.0
2017-Dec-10 04:00N 44°44' E 037°47'0 0.0
2017-Dec-10 03:30N 44°44' E 037°47'0 0.0
2017-Dec-10 03:00N 44°44' E 037°47'0 0.0
2017-Dec-10 02:30N 44°44' E 037°47'0 0.0
2017-Dec-10 02:00N 44°44' E 037°47'0 0.0
2017-Dec-10 01:30N 44°44' E 037°47'0 0.0
2017-Dec-10 01:00N 44°44' E 037°47'0 0.0
2017-Dec-10 00:30N 44°44' E 037°47'0 0.0
2017-Dec-10 00:00N 44°44' E 037°47'0 0.0
2017-Dec-09 23:30N 44°44' E 037°47'0 0.0
2017-Dec-09 23:00N 44°44' E 037°47'0 0.0
2017-Dec-09 22:30N 44°44' E 037°47'0 0.0
2017-Dec-09 21:24N 44°44' E 037°47'0 0.0
2017-Dec-09 21:00N 44°44' E 037°47'0 0.0
2017-Dec-09 20:30N 44°44' E 037°47'0 0.0
2017-Dec-09 20:00N 44°44' E 037°47'0 0.0
2017-Dec-09 19:30N 44°44' E 037°47'0 0.0
2017-Dec-09 19:00N 44°44' E 037°47'0 0.0
2017-Dec-09 18:30N 44°44' E 037°47'0 0.0
2017-Dec-09 18:00N 44°44' E 037°47'0 0.0
2017-Dec-09 17:30N 44°44' E 037°47'0 0.0
2017-Dec-09 17:00N 44°44' E 037°47'0 0.0
2017-Dec-09 16:30N 44°44' E 037°47'0 0.0
2017-Dec-09 16:00N 44°44' E 037°47'0 0.0
2017-Dec-09 15:30N 44°44' E 037°47'0 0.0
2017-Dec-09 15:00N 44°44' E 037°47'0 0.0
2017-Dec-09 14:30N 44°44' E 037°47'0 0.0
2017-Dec-09 14:00N 44°44' E 037°47'0 0.0
2017-Dec-09 13:30N 44°44' E 037°47'0 0.0
2017-Dec-09 13:00N 44°44' E 037°47'0 0.0
2017-Dec-09 12:30N 44°44' E 037°47'0 0.0
2017-Dec-09 11:57N 44°44' E 037°47'0 0.0
2017-Dec-09 11:30N 44°44' E 037°47'0 0.0
2017-Dec-09 11:00N 44°44' E 037°47'0 0.0
2017-Dec-09 10:30N 44°44' E 037°47'0 0.0
2017-Dec-09 10:00N 44°44' E 037°47'0 0.0
2017-Dec-09 09:30N 44°44' E 037°47'0 0.0
2017-Dec-09 09:00N 44°44' E 037°47'0 0.0
2017-Dec-09 08:30N 44°44' E 037°47'0 0.0
2017-Dec-09 08:00N 44°44' E 037°47'0 0.0
2017-Dec-09 07:30N 44°44' E 037°47'0 0.0
2017-Dec-09 07:00N 44°44' E 037°47'0 0.0
2017-Dec-09 06:30N 44°44' E 037°47'0 0.0
2017-Dec-09 06:00N 44°44' E 037°47'0 0.0
2017-Dec-09 05:30N 44°44' E 037°47'0 0.0
2017-Dec-09 05:00N 44°44' E 037°47'0 0.0
2017-Dec-09 04:30N 44°44' E 037°47'0 0.0
2017-Dec-09 04:00N 44°44' E 037°47'0 0.0
2017-Dec-09 03:30N 44°44' E 037°47'0 0.0
2017-Dec-09 03:00N 44°44' E 037°47'0 0.0
2017-Dec-09 02:30N 44°44' E 037°47'0 0.0
2017-Dec-09 02:00N 44°44' E 037°47'0 0.0
2017-Dec-09 01:30N 44°44' E 037°47'0 0.0
2017-Dec-09 00:59N 44°44' E 037°47'0 0.0
2017-Dec-09 00:30N 44°44' E 037°47'0 0.0
2017-Dec-08 23:59N 44°44' E 037°47'0 0.0
2017-Dec-08 23:29N 44°44' E 037°47'0 0.0
2017-Dec-08 22:59N 44°44' E 037°47'0 0.0
2017-Dec-08 22:29N 44°44' E 037°47'0 0.0
2017-Dec-08 21:59N 44°44' E 037°47'0 0.0
2017-Dec-08 21:29N 44°44' E 037°47'0 0.0
2017-Dec-08 20:59N 44°44' E 037°47'0 0.0
2017-Dec-08 20:29N 44°44' E 037°47'0 0.0
2017-Dec-08 19:59N 44°44' E 037°47'0 0.0
2017-Dec-08 19:29N 44°44' E 037°47'0 0.0
2017-Dec-08 18:59N 44°44' E 037°47'0 0.0
2017-Dec-08 18:29N 44°44' E 037°47'0 0.0
2017-Dec-08 17:59N 44°44' E 037°47'0 0.0
2017-Dec-08 17:29N 44°44' E 037°47'0 0.0
2017-Dec-08 16:53N 44°44' E 037°47'0 0.0
2017-Dec-08 16:29N 44°44' E 037°47'0 0.0
2017-Dec-08 15:56N 44°44' E 037°47'0 0.0
2017-Dec-08 15:29N 44°44' E 037°47'0 0.0
2017-Dec-08 14:59N 44°44' E 037°47'0 0.0
2017-Dec-08 14:29N 44°44' E 037°47'0 0.0
2017-Dec-08 13:59N 44°44' E 037°47'0 0.0
2017-Dec-08 13:29N 44°44' E 037°47'0 0.0
2017-Dec-08 12:59N 44°44' E 037°47'0 0.0
2017-Dec-08 12:29N 44°44' E 037°47'0 0.0
2017-Dec-08 11:59N 44°44' E 037°47'0 0.0
2017-Dec-08 11:29N 44°44' E 037°47'0 0.0
2017-Dec-08 10:59N 44°44' E 037°47'0 0.0
2017-Dec-08 10:29N 44°44' E 037°47'0 0.0
2017-Dec-08 09:59N 44°44' E 037°47'0 0.0
2017-Dec-08 09:29N 44°44' E 037°47'0 0.0
2017-Dec-08 08:59N 44°44' E 037°47'0 0.0
2017-Dec-08 08:29N 44°44' E 037°47'0 0.0
2017-Dec-08 07:59N 44°44' E 037°47'0 0.0
2017-Dec-08 07:29N 44°44' E 037°47'0 0.0
2017-Dec-08 06:59N 44°44' E 037°47'0 0.0
2017-Dec-08 06:29N 44°44' E 037°47'0 0.0
2017-Dec-08 05:59N 44°44' E 037°47'0 0.0
2017-Dec-08 05:29N 44°44' E 037°47'0 0.0
2017-Dec-08 04:59N 44°44' E 037°47'0 0.0
2017-Dec-08 04:29N 44°44' E 037°47'0 0.0
2017-Dec-08 03:59N 44°44' E 037°47'0 0.0
2017-Dec-08 03:29N 44°44' E 037°47'0 0.0
2017-Dec-08 02:59N 44°44' E 037°47'0 0.0
2017-Dec-08 02:29N 44°44' E 037°47'0 0.0
2017-Dec-08 01:59N 44°44' E 037°47'0 0.0
2017-Dec-08 01:29N 44°44' E 037°47'0 0.0
2017-Dec-08 00:59N 44°44' E 037°47'0 0.0
2017-Dec-08 00:29N 44°44' E 037°47'0 0.0
2017-Dec-07 23:59N 44°44' E 037°47'0 0.0
2017-Dec-07 23:29N 44°44' E 037°47'0 0.0
2017-Dec-07 22:59N 44°44' E 037°47'0 0.0
2017-Dec-07 22:29N 44°44' E 037°47'0 0.0
2017-Dec-07 21:59N 44°44' E 037°47'0 0.0
2017-Dec-07 21:29N 44°44' E 037°47'0 0.0
2017-Dec-07 20:59N 44°44' E 037°47'0 0.0
2017-Dec-07 20:29N 44°44' E 037°47'0 0.0
2017-Dec-07 20:00N 44°44' E 037°47'0 0.7
2017-Dec-07 19:30N 44°44' E 037°47'2 4.1
2017-Dec-07 19:00N 44°43' E 037°50'1 1.1
2017-Dec-07 18:30N 44°43' E 037°51'0 0.0
2017-Dec-07 18:00N 44°43' E 037°51'0 0.0
2017-Dec-07 17:30N 44°43' E 037°51'0 0.0
2017-Dec-07 17:00N 44°43' E 037°51'0 0.0
2017-Dec-07 16:30N 44°43' E 037°51'0 0.0
2017-Dec-07 16:00N 44°43' E 037°51'0 0.0
2017-Dec-07 15:29N 44°43' E 037°51'0 0.0
2017-Dec-07 14:59N 44°43' E 037°51'0 0.0
2017-Dec-07 14:29N 44°43' E 037°51'0 0.0
2017-Dec-07 13:59N 44°43' E 037°51'0 0.0
2017-Dec-07 13:29N 44°43' E 037°51'0 0.0
2017-Dec-07 12:56N 44°43' E 037°51'0 0.0
2017-Dec-07 12:29N 44°43' E 037°51'0 0.0
2017-Dec-07 11:59N 44°43' E 037°51'0 0.0
2017-Dec-07 11:29N 44°43' E 037°51'0 0.0
2017-Dec-07 10:59N 44°43' E 037°51'0 0.0
2017-Dec-07 10:29N 44°43' E 037°51'0 0.0
2017-Dec-07 09:59N 44°43' E 037°51'0 0.0
2017-Dec-07 09:29N 44°43' E 037°51'  

Dump ship's entire track history